Time;durP1;ratioP1;P1;durP2;ratioP2;P2;SDS_P1;SDS_P2;PMS_P1;PMS_P2;Temp;Humidity;BMP_temperature;BMP_pressure;BME280_temperature;BME280_humidity;BME280_pressure;Samples;Min_cycle;Max_cycle;Signal;HPM_P1;HPM_P2
2023/02/28 00:02:52;;;;;;;3.78;1.40;;;;;;;16.77;49.94;103312.69;6306980;22;20034;-85
2023/02/28 00:09:15;;;;;;;2.97;1.52;;;;;;;16.77;49.43;103317.91;6305444;22;20023;-85
2023/02/28 00:14:34;;;;;;;3.75;1.38;;;;;;;16.76;49.77;103313.53;6282490;22;20007;-83
2023/02/28 00:17:00;;;;;;;2.42;1.27;;;;;;;16.73;49.56;103313.44;6281434;22;20018;-84
2023/02/28 00:19:25;;;;;;;3.00;1.40;;;;;;;16.74;49.40;103315.19;6283365;22;20011;-84
2023/02/28 00:21:50;;;;;;;2.38;1.30;;;;;;;16.74;49.91;103316.06;6309359;22;20014;-83
2023/02/28 00:24:16;;;;;;;2.60;1.33;;;;;;;16.73;49.40;103310.81;6284859;22;19998;-84
2023/02/28 00:26:41;;;;;;;3.83;1.48;;;;;;;16.71;49.50;103307.28;6284723;22;20071;-83
2023/02/28 00:29:07;;;;;;;2.58;1.30;;;;;;;16.72;49.26;103312.53;6284156;22;20051;-84
2023/02/28 00:31:32;;;;;;;3.45;1.50;;;;;;;16.72;49.36;103315.13;6283851;22;20023;-84
2023/02/28 00:33:58;;;;;;;2.63;1.20;;;;;;;16.71;49.42;103312.50;6308930;22;20007;-83
2023/02/28 00:36:23;;;;;;;2.65;1.38;;;;;;;16.71;49.53;103308.16;6308411;22;20015;-84
2023/02/28 00:38:48;;;;;;;2.20;1.15;;;;;;;16.70;49.48;103302.91;6283833;22;20011;-84
2023/02/28 00:41:14;;;;;;;2.28;1.15;;;;;;;16.70;49.10;103303.81;6308167;22;20007;-83
2023/02/28 00:43:40;;;;;;;2.38;1.30;;;;;;;16.70;49.41;103305.50;6308431;22;20074;-83
2023/02/28 00:46:06;;;;;;;2.30;1.35;;;;;;;16.71;49.07;103302.09;6282387;22;20018;-84
2023/02/28 00:48:32;;;;;;;2.78;1.23;;;;;;;16.70;49.33;103302.91;6304667;22;20390;-83
2023/02/28 00:50:57;;;;;;;2.75;1.23;;;;;;;16.69;49.62;103303.75;6306352;22;20041;-83
2023/02/28 00:53:23;;;;;;;2.67;1.30;;;;;;;16.67;49.34;103299.38;6307198;22;19991;-83
2023/02/28 00:55:49;;;;;;;1.92;1.00;;;;;;;16.69;49.24;103295.94;6307072;22;20033;-83
2023/02/28 00:58:15;;;;;;;3.40;1.20;;;;;;;16.69;49.19;103293.34;6306783;22;20007;-82
2023/02/28 01:00:40;;;;;;;2.95;1.30;;;;;;;16.69;49.17;103298.56;6305517;22;20010;-82
2023/02/28 01:03:06;;;;;;;2.55;1.25;;;;;;;16.69;49.25;103308.94;6306720;22;20011;-82
2023/02/28 01:05:31;;;;;;;2.88;1.25;;;;;;;16.67;49.30;103308.91;6308242;22;20038;-84
2023/02/28 01:07:56;;;;;;;2.30;1.30;;;;;;;16.70;49.51;103313.31;6334505;22;20010;-83
2023/02/28 01:10:22;;;;;;;2.35;1.05;;;;;;;16.69;49.07;103311.56;6307825;22;20011;-83
2023/02/28 01:12:47;;;;;;;3.20;1.38;;;;;;;16.66;49.19;103304.53;6308233;22;20075;-85
2023/02/28 01:15:12;;;;;;;2.05;1.02;;;;;;;16.67;49.25;103306.28;6283906;22;19999;-83
2023/02/28 01:17:38;;;;;;;2.13;1.05;;;;;;;16.66;49.31;103301.94;6284637;22;20015;-83
2023/02/28 01:20:04;;;;;;;1.90;1.10;;;;;;;16.65;49.28;103298.44;6283999;22;20011;-84
2023/02/28 01:22:29;;;;;;;2.17;1.10;;;;;;;16.66;49.12;103302.81;6283364;22;20032;-85
2023/02/28 01:24:55;;;;;;;1.85;1.10;;;;;;;16.66;48.96;103294.13;6283127;22;20007;-84
2023/02/28 01:27:20;;;;;;;3.05;1.20;;;;;;;16.66;49.38;103297.63;6257440;22;20015;-85
2023/02/28 01:29:46;;;;;;;2.50;1.30;;;;;;;16.66;49.13;103286.34;6309418;22;20011;-86
2023/02/28 01:32:11;;;;;;;3.28;1.40;;;;;;;16.64;49.23;103285.41;6252911;22;20088;-83
2023/02/28 01:34:37;;;;;;;2.00;0.95;;;;;;;16.65;49.14;103284.56;6248535;23;19988;-85
2023/02/28 01:37:03;;;;;;;2.05;0.90;;;;;;;16.65;49.11;103279.34;6247737;23;20023;-83
2023/02/28 01:39:29;;;;;;;2.25;0.98;;;;;;;16.62;48.79;103280.16;6299288;22;19992;-82
2023/02/28 01:41:54;;;;;;;1.92;0.90;;;;;;;16.64;48.91;103283.69;6280097;22;20072;-82
2023/02/28 01:47:05;;;;;;;2.45;1.10;;;;;;;16.64;49.17;103281.09;6306854;22;20009;-85
2023/02/28 01:49:31;;;;;;;3.28;1.00;;;;;;;16.64;48.87;103286.28;6335751;22;19995;-87
2023/02/28 01:51:57;;;;;;;2.28;1.05;;;;;;;16.64;48.81;103285.41;6284619;22;20051;-86
2023/02/28 01:54:26;;;;;;;1.83;1.00;;;;;;;16.62;48.92;103274.94;6310079;22;19999;-85
2023/02/28 01:57:16;;;;;;;2.13;0.90;;;;;;;16.64;49.09;103280.22;6336371;22;19995;-85
2023/02/28 01:59:58;;;;;;;1.50;0.88;;;;;;;16.64;48.88;103275.00;6309350;22;20018;-85
2023/02/28 02:02:24;;;;;;;2.42;0.90;;;;;;;16.65;49.02;103277.63;6335712;22;20029;-85
2023/02/28 02:05:31;;;;;;;3.53;1.00;;;;;;;16.65;49.10;103269.84;6335197;22;20007;-84
2023/02/28 02:08:03;;;;;;;1.88;0.90;;;;;;;16.66;48.95;103274.22;6240554;23;20017;-84
2023/02/28 02:10:36;;;;;;;2.33;0.80;;;;;;;16.65;49.18;103272.44;6217650;23;20016;-84
2023/02/28 02:13:13;;;;;;;1.98;1.00;;;;;;;16.69;49.03;103273.44;6297663;22;20022;-85
2023/02/28 02:16:00;;;;;;;2.72;1.02;;;;;;;16.69;49.24;103269.94;6310443;22;20047;-84
2023/02/28 02:18:37;;;;;;;2.42;1.13;;;;;;;16.71;49.09;103265.69;6309394;22;20011;-84
2023/02/28 02:21:03;;;;;;;2.47;1.17;;;;;;;16.70;48.83;103262.22;6295077;22;20020;-84
2023/02/28 02:32:05;;;;;;;1.90;0.77;;;;;;;16.72;49.23;103257.91;6265689;22;20018;-84
2023/02/28 02:34:42;;;;;;;2.78;0.80;;;;;;;16.72;49.16;103251.84;6310118;22;20046;-84
2023/02/28 02:37:34;;;;;;;1.73;0.85;;;;;;;16.73;49.06;103245.81;6335905;22;19990;-84
2023/02/28 02:40:24;;;;;;;2.40;0.88;;;;;;;16.75;49.26;103244.16;6204497;22;20028;-82
2023/02/28 02:43:09;;;;;;;2.10;0.90;;;;;;;16.74;48.96;103245.84;6213082;22;20016;-83
2023/02/28 02:45:57;;;;;;;1.95;1.02;;;;;;;16.74;49.06;103247.56;6207144;22;20028;-84
2023/02/28 02:48:26;;;;;;;1.13;0.77;;;;;;;16.75;49.19;103246.75;6247701;23;19996;-84
2023/02/28 02:50:59;;;;;;;3.10;0.98;;;;;;;16.73;49.16;103241.50;6247777;23;19989;-83
2023/02/28 03:03:45;;;;;;;2.35;0.80;;;;;;;16.76;49.27;103251.97;6199521;22;20009;-83
2023/02/28 03:08:46;;;;;;;1.45;0.70;;;;;;;16.75;49.00;103251.97;6204262;22;20027;-83
2023/02/28 03:11:15;;;;;;;3.17;0.90;;;;;;;16.74;49.12;103247.56;6253668;22;19995;-83
2023/02/28 03:13:51;;;;;;;2.70;0.77;;;;;;;16.73;49.38;103251.91;6279166;22;19988;-85
2023/02/28 03:19:30;;;;;;;3.58;0.75;;;;;;;16.73;49.24;103249.31;6251379;22;20049;-85
2023/02/28 03:22:25;;;;;;;2.83;0.80;;;;;;;16.73;49.19;103244.09;6217672;22;20083;-85
2023/02/28 03:25:18;;;;;;;2.05;0.80;;;;;;;16.72;49.22;103249.25;6276626;22;20003;-84
2023/02/28 03:28:05;;;;;;;2.03;0.95;;;;;;;16.71;49.18;103244.88;6276201;22;20000;-85
2023/02/28 03:30:53;;;;;;;2.50;0.82;;;;;;;16.72;49.31;103241.44;6204708;22;20012;-86
2023/02/28 03:33:23;;;;;;;1.58;0.77;;;;;;;16.71;48.92;103244.88;6280194;22;20008;-85
2023/02/28 03:36:12;;;;;;;1.60;0.70;;;;;;;16.72;49.33;103242.31;6279159;22;20004;-83
2023/02/28 03:38:50;;;;;;;1.88;0.85;;;;;;;16.71;49.31;103242.28;6277317;22;20012;-84
2023/02/28 03:41:21;;;;;;;4.50;0.73;;;;;;;16.71;49.31;103240.56;6279003;22;20012;-84
2023/02/28 03:44:16;;;;;;;1.85;0.80;;;;;;;16.70;49.36;103243.09;6307306;22;19999;-82
2023/02/28 03:46:48;;;;;;;2.88;1.00;;;;;;;16.71;49.49;103243.16;6281213;22;20016;-82
2023/02/28 03:49:21;;;;;;;4.88;0.90;;;;;;;16.69;49.25;103244.81;6306417;22;20034;-84
2023/02/28 03:51:50;;;;;;;3.33;0.60;;;;;;;16.68;49.33;103245.69;6231737;22;20004;-83
2023/02/28 03:54:20;;;;;;;2.42;0.70;;;;;;;16.69;49.18;103251.75;6275959;22;20004;-83
2023/02/28 03:57:01;;;;;;;3.28;0.90;;;;;;;16.69;49.51;103250.03;6249724;22;19989;-85
2023/02/28 03:59:36;;;;;;;1.73;0.60;;;;;;;16.70;49.29;103249.22;6276387;22;19991;-83
2023/02/28 04:02:02;;;;;;;2.78;0.75;;;;;;;16.71;49.26;103253.56;6249120;23;20038;-84
2023/02/28 04:04:28;;;;;;;3.88;1.00;;;;;;;16.72;49.10;103257.03;6250244;23;20012;-84
2023/02/28 04:07:02;;;;;;;1.83;0.80;;;;;;;16.72;49.30;103249.25;6200245;23;20023;-84
2023/02/28 04:09:28;;;;;;;1.52;0.80;;;;;;;16.70;49.30;103244.00;6238115;22;20008;-84
2023/02/28 04:11:55;;;;;;;2.88;0.90;;;;;;;16.71;49.48;103243.16;6273985;22;20024;-84
2023/02/28 04:14:21;;;;;;;1.55;0.68;;;;;;;16.71;49.19;103237.09;6245369;22;20023;-86
2023/02/28 04:16:47;;;;;;;1.67;0.60;;;;;;;16.70;49.20;103230.09;6278931;22;20034;-82
2023/02/28 04:19:13;;;;;;;1.33;0.60;;;;;;;16.71;49.33;103232.75;6279797;22;19988;-85
2023/02/28 04:21:41;;;;;;;1.08;0.60;;;;;;;16.73;49.16;103240.63;6255035;22;20021;-82
2023/02/28 04:24:13;;;;;;;1.98;0.75;;;;;;;16.73;49.08;103240.63;6278881;22;19995;-83
2023/02/28 04:26:39;;;;;;;1.58;0.70;;;;;;;16.73;48.99;103236.31;6279207;22;20010;-82
2023/02/28 04:29:05;;;;;;;1.35;0.60;;;;;;;16.73;49.06;103235.44;6303534;22;20008;-86
2023/02/28 04:31:31;;;;;;;2.55;0.80;;;;;;;16.73;49.06;103235.44;6277388;22;20003;-85
2023/02/28 04:34:01;;;;;;;1.60;0.70;;;;;;;16.74;49.07;103231.97;6275364;22;20003;-84
2023/02/28 04:36:26;;;;;;;1.30;0.57;;;;;;;16.73;49.17;103231.09;6279069;22;20000;-84
2023/02/28 04:38:52;;;;;;;0.73;0.60;;;;;;;16.72;49.13;103237.13;6305942;22;20019;-82
2023/02/28 04:41:19;;;;;;;2.20;0.57;;;;;;;16.71;49.14;103229.28;6278248;22;20031;-84
2023/02/28 04:43:44;;;;;;;1.80;0.57;;;;;;;16.71;49.38;103235.38;6305341;22;20007;-86
2023/02/28 04:46:10;;;;;;;0.95;0.60;;;;;;;16.71;49.13;103235.38;6278281;22;20022;-83
2023/02/28 04:48:38;;;;;;;1.15;0.65;;;;;;;16.71;48.95;103237.97;6278210;22;20080;-82
2023/02/28 04:51:08;;;;;;;1.02;0.60;;;;;;;16.70;48.83;103236.22;6304527;22;19995;-84
2023/02/28 04:53:35;;;;;;;1.88;0.70;;;;;;;16.71;49.25;103235.38;6236595;22;20035;-84
2023/02/28 04:56:01;;;;;;;1.70;0.70;;;;;;;16.71;49.23;103231.88;6278104;22;20003;-83
2023/02/28 04:58:30;;;;;;;1.10;0.60;;;;;;;16.71;49.25;103231.88;6280353;22;19995;-82
2023/02/28 05:01:04;;;;;;;1.75;0.70;;;;;;;16.70;49.25;103235.31;6280049;22;20008;-83
2023/02/28 05:03:29;;;;;;;1.48;0.80;;;;;;;16.70;49.21;103233.63;6280322;22;19995;-82
2023/02/28 05:05:55;;;;;;;0.88;0.50;;;;;;;16.71;49.33;103240.56;6278680;22;20012;-83
2023/02/28 05:08:20;;;;;;;2.08;0.68;;;;;;;16.73;49.17;103238.03;6305680;22;20018;-82
2023/02/28 05:10:46;;;;;;;1.88;0.80;;;;;;;16.71;49.41;103231.88;6253404;22;19996;-85
2023/02/28 05:13:12;;;;;;;1.30;0.70;;;;;;;16.73;49.19;103236.31;6253785;22;20022;-82
2023/02/28 05:15:37;;;;;;;2.28;0.90;;;;;;;16.72;49.09;103234.50;6279518;22;19992;-84
2023/02/28 05:18:03;;;;;;;0.98;0.50;;;;;;;16.72;49.37;103234.50;6253098;22;20041;-84
2023/02/28 05:20:28;;;;;;;1.67;0.75;;;;;;;16.73;48.96;103232.81;6252653;22;20014;-83
2023/02/28 05:22:54;;;;;;;1.45;0.70;;;;;;;16.75;49.02;103239.84;6253231;22;20015;-86
2023/02/28 05:25:31;;;;;;;1.75;0.60;;;;;;;16.76;49.31;103240.72;6253496;22;20016;-85
2023/02/28 05:27:56;;;;;;;2.38;0.90;;;;;;;16.75;49.15;103233.75;6281392;22;20078;-79
2023/02/28 05:33:44;;;;;;;0.88;0.60;;;;;;;16.75;49.12;103226.84;6283149;22;20023;-80
2023/02/28 05:36:10;;;;;;;1.40;0.70;;;;;;;16.77;48.98;103234.69;6278674;22;20007;-79
2023/02/28 05:38:48;;;;;;;1.55;0.60;;;;;;;16.77;49.32;103245.97;6259965;22;20022;-79
2023/02/28 05:44:21;;;;;;;1.05;0.60;;;;;;;16.78;49.00;103244.25;6236753;22;20340;-78
2023/02/28 05:46:47;;;;;;;1.80;0.80;;;;;;;16.78;49.02;103249.44;6281489;22;20010;-79
2023/02/28 05:49:12;;;;;;;1.45;0.70;;;;;;;16.80;49.20;103247.81;6307986;22;20395;-77
2023/02/28 05:51:39;;;;;;;1.02;0.57;;;;;;;16.78;49.01;103247.72;6307563;22;20421;-78
2023/02/28 05:54:05;;;;;;;1.80;0.70;;;;;;;16.78;49.01;103246.84;6307877;22;20018;-78
2023/02/28 05:56:31;;;;;;;1.42;0.60;;;;;;;16.80;49.23;103247.81;6255922;22;20011;-80
2023/02/28 05:58:57;;;;;;;1.55;0.63;;;;;;;16.79;49.36;103243.44;6309206;22;20007;-80
2023/02/28 06:01:50;;;;;;;1.42;0.55;;;;;;;16.79;48.91;103252.09;6284124;22;20033;-82
2023/02/28 06:04:18;;;;;;;1.50;0.55;;;;;;;16.81;48.90;103244.38;6300495;22;20022;-80
2023/02/28 06:06:48;;;;;;;1.73;0.70;;;;;;;16.80;49.07;103246.09;6298823;22;20001;-85
2023/02/28 06:09:15;;;;;;;2.08;0.70;;;;;;;16.81;48.95;103249.56;6304180;22;20427;-83
2023/02/28 06:15:03;;;;;;;1.58;0.60;;;;;;;16.83;49.13;103240.09;6325555;22;20107;-82
2023/02/28 06:17:28;;;;;;;2.47;0.68;;;;;;;16.84;48.79;103242.75;6316831;22;19995;-80
2023/02/28 06:19:53;;;;;;;1.15;0.70;;;;;;;16.85;48.82;103243.63;6288039;22;20018;-81
2023/02/28 06:22:19;;;;;;;0.85;0.50;;;;;;;16.84;48.98;103236.69;6284723;22;20011;-80
2023/02/28 06:24:44;;;;;;;1.60;0.70;;;;;;;16.86;48.97;103237.63;6283366;22;20015;-83
2023/02/28 06:27:10;;;;;;;1.65;0.55;;;;;;;16.88;49.00;103245.47;6309915;22;20007;-80
2023/02/28 06:29:35;;;;;;;2.35;0.90;;;;;;;16.85;48.79;103241.03;6282192;22;20080;-80
2023/02/28 06:32:02;;;;;;;2.55;0.90;;;;;;;16.87;49.10;103241.97;6309996;22;20074;-80
2023/02/28 06:34:27;;;;;;;0.77;0.45;;;;;;;16.87;48.79;103249.75;6308081;22;20432;-80
2023/02/28 06:36:53;;;;;;;1.27;0.68;;;;;;;16.88;48.92;103250.69;6284296;22;20014;-81
2023/02/28 06:39:18;;;;;;;0.65;0.45;;;;;;;16.87;48.95;103247.16;6310826;22;20009;-81
2023/02/28 06:41:45;;;;;;;1.05;0.65;;;;;;;16.88;48.93;103251.56;6287037;22;20015;-81
2023/02/28 06:44:16;;;;;;;0.95;0.50;;;;;;;16.86;48.82;103256.69;6286104;22;20011;-82
2023/02/28 06:46:44;;;;;;;2.05;0.60;;;;;;;16.85;48.89;103262.75;6264374;22;20331;-83
2023/02/28 06:49:15;;;;;;;1.05;0.70;;;;;;;16.84;48.97;103258.34;6316994;22;20010;-83
2023/02/28 06:51:46;;;;;;;5.30;1.77;;;;;;;16.85;49.00;103259.22;6318339;22;20011;-82
2023/02/28 06:54:12;;;;;;;8.02;2.40;;;;;;;16.97;49.26;103256.16;6312417;22;20078;-83
2023/02/28 06:56:38;;;;;;;6.45;2.05;;;;;;;17.02;48.93;103264.97;6285074;22;20426;-81
2023/02/28 06:59:03;;;;;;;11.10;2.65;;;;;;;17.03;49.10;103272.84;6317827;22;20003;-82
2023/02/28 07:01:31;;;;;;;6.65;2.05;;;;;;;17.03;49.05;103277.16;6290242;22;20007;-84
2023/02/28 07:03:56;;;;;;;12.02;2.28;;;;;;;17.02;49.35;103280.59;6261618;22;20010;-81
2023/02/28 07:06:23;;;;;;;12.20;1.88;;;;;;;17.03;49.06;103280.66;6281659;22;20011;-81
2023/02/28 07:08:49;;;;;;;7.05;2.05;;;;;;;17.04;49.12;103282.41;6308825;22;20003;-80
2023/02/28 07:11:15;;;;;;;6.28;1.98;;;;;;;17.04;49.39;103285.00;6308672;22;20003;-80
2023/02/28 07:13:40;;;;;;;6.68;1.95;;;;;;;17.04;49.04;103287.59;6281028;22;20029;-80
2023/02/28 07:16:09;;;;;;;4.93;2.10;;;;;;;17.06;49.12;103285.06;6230142;22;20014;-80
2023/02/28 07:18:35;;;;;;;10.30;2.00;;;;;;;17.07;49.22;103289.41;6308814;22;20010;-81
2023/02/28 07:21:08;;;;;;;5.25;1.73;;;;;;;17.04;49.22;103287.59;6281556;22;20008;-81
2023/02/28 07:23:34;;;;;;;6.03;1.83;;;;;;;17.05;49.17;103283.31;6281458;22;20003;-81
2023/02/28 07:25:59;;;;;;;4.55;1.70;;;;;;;17.04;48.92;103276.31;6310196;22;20010;-82
2023/02/28 07:28:25;;;;;;;2.83;1.40;;;;;;;17.05;48.89;103278.09;6282265;22;20074;-81
2023/02/28 07:30:50;;;;;;;4.00;1.70;;;;;;;17.05;49.12;103281.56;6256056;22;20029;-80
2023/02/28 07:33:16;;;;;;;3.90;1.60;;;;;;;17.06;49.03;103280.72;6280959;22;20015;-80
2023/02/28 07:35:42;;;;;;;4.20;1.50;;;;;;;17.06;49.06;103287.66;6280966;22;20013;-80
2023/02/28 07:38:08;;;;;;;3.75;1.50;;;;;;;17.06;49.05;103291.13;6308010;22;20006;-80
2023/02/28 07:40:34;;;;;;;5.10;1.63;;;;;;;17.05;48.85;103288.50;6255870;22;20014;-80
2023/02/28 07:43:00;;;;;;;4.05;1.45;;;;;;;17.05;48.93;103289.38;6281304;22;20080;-80
2023/02/28 07:45:28;;;;;;;4.55;1.40;;;;;;;17.06;49.03;103292.84;6280870;22;20032;-83
2023/02/28 07:47:54;;;;;;;2.35;1.30;;;;;;;17.06;48.99;103293.72;6281681;22;20057;-80
2023/02/28 07:50:19;;;;;;;3.63;1.58;;;;;;;17.08;48.86;103295.53;6280850;22;20003;-80
2023/02/28 07:52:45;;;;;;;3.88;1.65;;;;;;;17.08;49.19;103288.59;6255362;22;20332;-80
2023/02/28 07:55:10;;;;;;;3.40;1.23;;;;;;;17.09;48.69;103294.66;6231892;22;20045;-80
2023/02/28 07:57:36;;;;;;;2.60;1.17;;;;;;;17.08;48.89;103292.91;6282226;22;20438;-80
2023/02/28 08:00:09;;;;;;;2.95;1.30;;;;;;;17.08;48.88;103300.72;6282275;22;20006;-80
2023/02/28 08:02:34;;;;;;;3.60;1.20;;;;;;;17.08;48.84;103303.31;6281255;22;19995;-79
2023/02/28 08:05:00;;;;;;;3.20;1.60;;;;;;;17.08;48.54;103304.19;6281811;22;20026;-79
2023/02/28 08:07:25;;;;;;;2.05;1.20;;;;;;;17.09;48.97;103313.75;6282907;22;20011;-80
2023/02/28 08:09:50;;;;;;;3.55;1.42;;;;;;;17.09;48.59;103307.69;6281170;22;20415;-82
2023/02/28 08:12:16;;;;;;;4.35;1.20;;;;;;;17.09;48.87;103315.47;6280966;22;20007;-79
2023/02/28 08:14:41;;;;;;;2.60;1.20;;;;;;;17.10;48.51;103317.25;6255333;22;20438;-79
2023/02/28 08:17:06;;;;;;;2.88;1.40;;;;;;;17.10;49.01;103319.88;6256071;22;20014;-80
2023/02/28 08:19:32;;;;;;;2.92;1.40;;;;;;;17.09;48.81;103313.75;6231845;22;20443;-79
2023/02/28 08:21:58;;;;;;;3.65;1.45;;;;;;;17.11;48.86;103313.81;6257363;22;20003;-80
2023/02/28 08:24:23;;;;;;;2.72;1.20;;;;;;;17.11;48.75;103313.81;6309781;22;20010;-79
2023/02/28 08:26:56;;;;;;;2.58;1.33;;;;;;;17.09;48.57;103313.75;6256788;22;20012;-80
2023/02/28 08:29:22;;;;;;;1.80;1.00;;;;;;;17.11;48.72;103306.88;6284381;22;20007;-79
2023/02/28 08:31:47;;;;;;;3.65;1.40;;;;;;;17.12;48.93;103308.66;6282632;22;20068;-80
2023/02/28 08:34:15;;;;;;;6.88;1.02;;;;;;;17.13;48.74;103299.13;6257588;22;20003;-79
2023/02/28 08:36:41;;;;;;;2.72;1.00;;;;;;;17.13;48.53;103297.41;6282551;22;20007;-79
2023/02/28 08:39:07;;;;;;;1.60;0.90;;;;;;;17.13;48.33;103306.94;6282655;22;20002;-80
2023/02/28 08:41:33;;;;;;;2.08;1.00;;;;;;;17.13;48.44;103312.16;6284254;22;20007;-80
2023/02/28 08:43:58;;;;;;;2.67;1.40;;;;;;;17.13;48.47;103312.16;6284910;22;20006;-79
2023/02/28 08:46:24;;;;;;;2.00;1.10;;;;;;;17.14;48.71;103308.72;6283450;22;20018;-80
2023/02/28 08:48:55;;;;;;;2.25;1.25;;;;;;;17.13;48.36;103306.94;6282692;22;20014;-80
2023/02/28 08:51:26;;;;;;;2.22;0.82;;;;;;;17.12;48.35;103310.41;6282966;22;20081;-80
2023/02/28 08:53:53;;;;;;;1.17;0.82;;;;;;;17.12;48.40;103307.78;6284243;22;20025;-80
2023/02/28 08:56:18;;;;;;;2.92;1.10;;;;;;;17.11;48.31;103309.47;6283175;22;20011;-80
2023/02/28 08:58:45;;;;;;;3.22;0.90;;;;;;;17.12;48.24;103305.19;6283624;22;20130;-80
2023/02/28 09:01:20;;;;;;;1.67;0.80;;;;;;;17.13;48.43;103312.16;6282441;22;20007;-80
2023/02/28 09:03:47;;;;;;;2.00;1.08;;;;;;;17.13;48.48;103314.75;6282560;22;20007;-80
2023/02/28 09:06:14;;;;;;;1.67;1.10;;;;;;;17.13;48.27;103312.16;6309689;22;20010;-80
2023/02/28 09:08:40;;;;;;;1.50;1.00;;;;;;;17.13;48.28;103315.63;6257111;22;20011;-79
2023/02/28 09:11:06;;;;;;;1.73;0.90;;;;;;;17.14;48.46;103321.75;6282804;22;20363;-80
2023/02/28 09:13:32;;;;;;;1.90;0.90;;;;;;;17.15;48.39;103323.50;6257654;22;20050;-79
2023/02/28 09:15:59;;;;;;;1.92;0.90;;;;;;;17.14;48.29;103330.41;6283142;22;20030;-79
2023/02/28 09:18:24;;;;;;;1.63;0.80;;;;;;;17.14;48.17;103325.22;6309500;22;19999;-79
2023/02/28 09:20:50;;;;;;;1.65;0.98;;;;;;;17.14;48.37;103319.13;6282582;22;20057;-79
2023/02/28 09:23:16;;;;;;;1.63;0.88;;;;;;;17.14;48.37;103314.81;6282407;22;20094;-79
2023/02/28 09:25:51;;;;;;;1.45;0.90;;;;;;;17.17;48.19;103308.81;6281933;22;20015;-79
2023/02/28 09:28:17;;;;;;;1.65;0.70;;;;;;;17.19;48.17;103312.34;6282260;22;20045;-79
2023/02/28 09:30:45;;;;;;;1.90;0.90;;;;;;;17.19;48.27;103305.41;6284806;22;20007;-80
2023/02/28 09:33:11;;;;;;;0.98;0.70;;;;;;;17.21;48.26;103308.06;6284976;22;20037;-80
2023/02/28 09:35:37;;;;;;;1.52;0.80;;;;;;;17.22;47.89;103307.22;6261129;22;20011;-80
2023/02/28 09:38:03;;;;;;;1.75;0.88;;;;;;;17.22;48.02;103315.03;6288580;22;20015;-79
2023/02/28 09:40:28;;;;;;;1.35;0.80;;;;;;;17.24;48.02;103314.25;6287741;22;20004;-80
2023/02/28 09:42:57;;;;;;;1.23;0.90;;;;;;;17.25;48.05;103317.75;6257962;22;20022;-79
2023/02/28 09:45:25;;;;;;;1.48;0.70;;;;;;;17.25;47.98;103313.41;6282332;22;20065;-79
2023/02/28 09:47:54;;;;;;;2.08;0.88;;;;;;;17.26;47.97;103316.91;6282139;22;20073;-80
2023/02/28 09:50:29;;;;;;;1.25;0.90;;;;;;;17.33;47.57;103325.78;6281847;22;20006;-80
2023/02/28 09:52:58;;;;;;;1.23;0.70;;;;;;;17.36;47.67;103325.91;6283048;22;20007;-82
2023/02/28 09:55:44;;;;;;;1.70;0.75;;;;;;;17.33;47.74;103328.38;6258656;22;20011;-80
2023/02/28 09:58:26;;;;;;;3.13;1.02;;;;;;;17.30;47.95;103326.56;6282333;22;20011;-80
2023/02/28 10:01:07;;;;;;;1.23;0.70;;;;;;;17.30;48.01;103331.78;6283117;22;20082;-80
2023/02/28 10:03:40;;;;;;;3.92;0.80;;;;;;;17.30;47.99;103329.19;6282767;22;20324;-79
2023/02/28 10:06:05;;;;;;;1.60;0.80;;;;;;;17.32;47.90;103324.03;6284037;22;20039;-80
2023/02/28 10:08:42;;;;;;;1.60;0.90;;;;;;;17.32;47.99;103326.63;6282990;22;20011;-79
2023/02/28 10:11:11;;;;;;;2.47;0.93;;;;;;;17.32;48.02;103314.50;6309871;22;20021;-80
2023/02/28 10:13:45;;;;;;;1.85;0.85;;;;;;;17.32;48.06;103318.81;6282749;22;20500;-80
2023/02/28 10:16:16;;;;;;;1.52;0.80;;;;;;;17.34;47.85;103311.94;6309926;22;20010;-80
2023/02/28 10:18:47;;;;;;;1.33;0.80;;;;;;;17.34;48.07;103319.75;6282653;22;20006;-79
2023/02/28 10:21:23;;;;;;;1.10;0.80;;;;;;;17.36;47.82;103315.47;6283157;22;20000;-81
2023/02/28 10:23:52;;;;;;;0.85;0.70;;;;;;;17.34;47.92;103332.78;6282111;22;20003;-78
2023/02/28 10:26:18;;;;;;;2.40;0.90;;;;;;;17.32;47.92;103335.31;6281343;22;20396;-78
2023/02/28 10:28:43;;;;;;;1.33;0.80;;;;;;;17.34;47.92;103325.84;6281312;22;20006;-79
2023/02/28 10:31:17;;;;;;;1.65;0.65;;;;;;;17.38;47.86;103316.41;6255506;22;20011;-79
2023/02/28 10:33:44;;;;;;;1.27;0.80;;;;;;;17.39;47.83;103312.97;6281259;22;20003;-78
2023/02/28 10:36:14;;;;;;;1.02;0.75;;;;;;;17.42;47.55;103313.03;6281369;22;20014;-79
2023/02/28 10:38:40;;;;;;;1.10;0.70;;;;;;;17.42;47.78;103315.63;6281098;22;20010;-79
2023/02/28 10:41:07;;;;;;;1.20;0.73;;;;;;;17.40;47.71;103327.75;6230331;22;20335;-78
2023/02/28 10:43:33;;;;;;;1.60;0.80;;;;;;;17.38;47.92;103321.63;6280937;22;20070;-79
2023/02/28 10:46:03;;;;;;;1.60;0.70;;;;;;;17.38;47.93;103332.91;6307217;22;20144;-79
2023/02/28 10:48:36;;;;;;;4.22;0.70;;;;;;;17.37;47.73;103323.31;6307421;22;20331;-79
2023/02/28 10:51:05;;;;;;;1.00;0.60;;;;;;;17.40;47.72;103322.56;6307711;22;20404;-79
2023/02/28 10:53:32;;;;;;;1.20;0.65;;;;;;;17.45;47.64;103320.97;6308097;22;20029;-79
2023/02/28 10:56:03;;;;;;;1.30;0.60;;;;;;;17.46;47.79;103313.22;6282320;22;20090;-79
2023/02/28 10:58:53;;;;;;;1.83;0.70;;;;;;;17.46;47.64;103328.81;6281160;22;20071;-79
2023/02/28 11:01:45;;;;;;;1.40;0.60;;;;;;;17.46;47.65;103326.22;6281005;22;20038;-79
2023/02/28 11:04:19;;;;;;;1.00;0.70;;;;;;;17.48;47.69;103321.94;6307122;22;20044;-79
2023/02/28 11:06:45;;;;;;;1.33;0.68;;;;;;;17.48;47.48;103327.16;6307527;22;20378;-79
2023/02/28 11:09:40;;;;;;;1.52;0.80;;;;;;;17.50;47.58;103324.56;6280051;22;20074;-79
2023/02/28 11:12:08;;;;;;;1.10;0.55;;;;;;;17.53;47.59;103318.56;6306762;22;19999;-79
2023/02/28 11:14:48;;;;;;;1.17;0.70;;;;;;;17.55;47.35;103317.81;6279451;22;20015;-80
2023/02/28 11:17:29;;;;;;;0.70;0.55;;;;;;;17.58;47.15;103319.63;6306939;22;19999;-79
2023/02/28 11:20:07;;;;;;;0.82;0.60;;;;;;;17.61;47.04;103314.47;6280204;22;20007;-80
2023/02/28 11:22:38;;;;;;;1.23;0.68;;;;;;;17.60;47.24;103305.81;6279576;22;20003;-79
2023/02/28 11:25:24;;;;;;;1.30;0.60;;;;;;;17.64;46.88;103304.19;6306309;22;20011;-81
2023/02/28 11:27:55;;;;;;;0.90;0.52;;;;;;;17.66;46.98;103305.13;6306831;22;20083;-79
2023/02/28 11:30:34;;;;;;;1.25;0.80;;;;;;;17.67;46.93;103309.47;6279237;22;20317;-80
2023/02/28 11:33:01;;;;;;;1.20;0.60;;;;;;;17.66;46.96;103308.59;6279215;22;20003;-80
2023/02/28 11:35:35;;;;;;;0.68;0.60;;;;;;;17.63;47.17;103307.59;6306749;22;20010;-80
2023/02/28 11:38:02;;;;;;;0.77;0.55;;;;;;;17.66;47.14;103298.19;6279880;22;20010;-80
2023/02/28 11:40:35;;;;;;;0.63;0.50;;;;;;;17.68;47.01;103306.00;6307213;22;20011;-78
2023/02/28 11:43:07;;;;;;;;;;;;;;;17.68;47.15;103299.09;6287306;22;20003;-86
2023/02/28 11:45:48;;;;;;;0.60;0.60;;;;;;;17.72;47.03;103305.25;6242992;22;1167976;-81
2023/02/28 11:48:45;;;;;;;0.63;0.52;;;;;;;17.74;47.15;103302.72;6284617;22;20008;-80
2023/02/28 11:51:22;;;;;;;0.70;0.45;;;;;;;17.77;46.85;103292.38;6310267;22;20087;-83
2023/02/28 11:54:32;;;;;;;0.85;0.40;;;;;;;17.77;47.03;103297.56;6286054;22;20018;-81
2023/02/28 11:57:16;;;;;;;1.20;0.60;;;;;;;17.77;46.87;103297.56;6238292;22;20072;-81
2023/02/28 12:00:00;;;;;;;1.05;0.63;;;;;;;17.79;46.95;103294.22;6297422;22;20009;-83
2023/02/28 12:02:34;;;;;;;0.80;0.50;;;;;;;17.82;46.98;103288.22;6320830;22;20007;-85
2023/02/28 12:05:32;;;;;;;0.40;0.40;;;;;;;17.81;46.67;103289.94;6310845;22;20026;-81
2023/02/28 12:08:40;;;;;;;0.82;0.55;;;;;;;17.81;46.83;103284.72;6282514;22;20056;-81
2023/02/28 12:11:44;;;;;;;1.33;0.70;;;;;;;17.80;46.89;103276.84;6282479;22;20045;-81
2023/02/28 12:14:12;;;;;;;;;;;;;;;17.79;47.08;103269.84;6245805;22;20090;-84
2023/02/28 12:17:23;;;;;;;0.43;0.40;;;;;;;17.77;47.03;103272.44;6282136;22;19933;-82
2023/02/28 12:20:09;;;;;;;0.68;0.50;;;;;;;17.76;47.10;103262.84;6190487;23;20041;-81
2023/02/28 12:23:14;;;;;;;0.90;0.60;;;;;;;17.72;47.18;103263.59;6190186;23;20534;-81
2023/02/28 12:25:57;;;;;;;0.90;0.47;;;;;;;17.76;47.07;103269.78;6270422;22;20339;-81
2023/02/28 12:28:28;;;;;;;0.70;0.50;;;;;;;17.77;47.19;103267.22;6282580;22;20011;-80